sensor_id;sensor_type;location;lat;lon;timestamp;P1;durP1;ratioP1;P2;durP2;ratioP2
22571;SDS011;11452;53.368;14.658;2022-07-23T00:02:13;4.97;;;4.27;;
22571;SDS011;11452;53.368;14.658;2022-07-23T00:07:18;5.00;;;4.50;;
22571;SDS011;11452;53.368;14.658;2022-07-23T00:12:24;4.33;;;3.93;;
22571;SDS011;11452;53.368;14.658;2022-07-23T00:17:29;4.40;;;4.00;;
22571;SDS011;11452;53.368;14.658;2022-07-23T00:22:36;4.97;;;3.80;;
22571;SDS011;11452;53.368;14.658;2022-07-23T00:27:43;4.40;;;3.97;;
22571;SDS011;11452;53.368;14.658;2022-07-23T00:32:49;5.47;;;4.03;;
22571;SDS011;11452;53.368;14.658;2022-07-23T00:37:58;4.33;;;3.90;;
22571;SDS011;11452;53.368;14.658;2022-07-23T00:43:04;4.87;;;4.40;;
22571;SDS011;11452;53.368;14.658;2022-07-23T00:48:10;4.63;;;4.20;;
22571;SDS011;11452;53.368;14.658;2022-07-23T00:53:15;6.77;;;5.07;;
22571;SDS011;11452;53.368;14.658;2022-07-23T00:58:21;4.53;;;4.10;;
22571;SDS011;11452;53.368;14.658;2022-07-23T01:03:26;5.10;;;4.13;;
22571;SDS011;11452;53.368;14.658;2022-07-23T01:08:32;7.00;;;4.30;;
22571;SDS011;11452;53.368;14.658;2022-07-23T01:13:40;4.97;;;4.40;;
22571;SDS011;11452;53.368;14.658;2022-07-23T01:18:48;4.73;;;4.30;;
22571;SDS011;11452;53.368;14.658;2022-07-23T01:23:53;7.77;;;4.90;;
22571;SDS011;11452;53.368;14.658;2022-07-23T01:28:59;5.33;;;4.57;;
22571;SDS011;11452;53.368;14.658;2022-07-23T01:34:07;5.33;;;4.30;;
22571;SDS011;11452;53.368;14.658;2022-07-23T01:39:12;4.77;;;4.37;;
22571;SDS011;11452;53.368;14.658;2022-07-23T01:44:19;5.60;;;5.00;;
22571;SDS011;11452;53.368;14.658;2022-07-23T01:49:25;5.17;;;4.60;;
22571;SDS011;11452;53.368;14.658;2022-07-23T01:54:33;6.23;;;5.33;;
22571;SDS011;11452;53.368;14.658;2022-07-23T01:59:40;7.50;;;5.17;;
22571;SDS011;11452;53.368;14.658;2022-07-23T02:04:48;7.90;;;5.20;;
22571;SDS011;11452;53.368;14.658;2022-07-23T02:09:54;7.63;;;5.40;;
22571;SDS011;11452;53.368;14.658;2022-07-23T02:15:00;7.63;;;4.97;;
22571;SDS011;11452;53.368;14.658;2022-07-23T02:20:06;6.60;;;4.87;;
22571;SDS011;11452;53.368;14.658;2022-07-23T02:25:13;6.77;;;5.50;;
22571;SDS011;11452;53.368;14.658;2022-07-23T02:30:19;7.77;;;5.00;;
22571;SDS011;11452;53.368;14.658;2022-07-23T02:35:24;7.57;;;5.40;;
22571;SDS011;11452;53.368;14.658;2022-07-23T02:40:31;8.43;;;5.60;;
22571;SDS011;11452;53.368;14.658;2022-07-23T02:45:37;5.20;;;4.70;;
22571;SDS011;11452;53.368;14.658;2022-07-23T02:50:44;5.83;;;5.17;;
22571;SDS011;11452;53.368;14.658;2022-07-23T02:55:51;8.10;;;5.27;;
22571;SDS011;11452;53.368;14.658;2022-07-23T03:00:57;8.23;;;6.03;;
22571;SDS011;11452;53.368;14.658;2022-07-23T03:06:03;6.27;;;4.63;;
22571;SDS011;11452;53.368;14.658;2022-07-23T03:11:10;5.10;;;4.50;;
22571;SDS011;11452;53.368;14.658;2022-07-23T03:16:16;5.07;;;4.57;;
22571;SDS011;11452;53.368;14.658;2022-07-23T03:21:21;6.90;;;4.43;;
22571;SDS011;11452;53.368;14.658;2022-07-23T03:26:27;4.97;;;4.50;;
22571;SDS011;11452;53.368;14.658;2022-07-23T03:31:33;4.40;;;4.00;;
22571;SDS011;11452;53.368;14.658;2022-07-23T03:36:39;6.23;;;5.00;;
22571;SDS011;11452;53.368;14.658;2022-07-23T03:41:46;5.87;;;4.50;;
22571;SDS011;11452;53.368;14.658;2022-07-23T03:46:52;4.50;;;3.73;;
22571;SDS011;11452;53.368;14.658;2022-07-23T03:51:57;4.17;;;3.77;;
22571;SDS011;11452;53.368;14.658;2022-07-23T03:57:03;6.00;;;3.97;;
22571;SDS011;11452;53.368;14.658;2022-07-23T04:02:09;4.33;;;3.87;;
22571;SDS011;11452;53.368;14.658;2022-07-23T04:07:14;5.37;;;4.00;;
22571;SDS011;11452;53.368;14.658;2022-07-23T04:12:21;5.63;;;3.67;;
22571;SDS011;11452;53.368;14.658;2022-07-23T04:17:27;4.07;;;3.13;;
22571;SDS011;11452;53.368;14.658;2022-07-23T04:22:34;4.53;;;3.43;;
22571;SDS011;11452;53.368;14.658;2022-07-23T04:27:40;4.13;;;3.27;;
22571;SDS011;11452;53.368;14.658;2022-07-23T04:32:45;4.37;;;3.20;;
22571;SDS011;11452;53.368;14.658;2022-07-23T04:37:56;3.20;;;2.73;;
22571;SDS011;11452;53.368;14.658;2022-07-23T04:43:03;4.20;;;2.77;;
22571;SDS011;11452;53.368;14.658;2022-07-23T04:48:11;4.70;;;3.00;;
22571;SDS011;11452;53.368;14.658;2022-07-23T04:53:16;4.80;;;2.70;;
22571;SDS011;11452;53.368;14.658;2022-07-23T04:58:23;3.67;;;2.67;;
22571;SDS011;11452;53.368;14.658;2022-07-23T05:03:29;2.80;;;2.60;;
22571;SDS011;11452;53.368;14.658;2022-07-23T05:08:34;4.17;;;2.10;;
22571;SDS011;11452;53.368;14.658;2022-07-23T05:13:40;4.33;;;2.30;;
22571;SDS011;11452;53.368;14.658;2022-07-23T05:18:45;5.20;;;2.60;;
22571;SDS011;11452;53.368;14.658;2022-07-23T05:23:52;3.33;;;2.43;;
22571;SDS011;11452;53.368;14.658;2022-07-23T05:28:57;3.93;;;2.60;;
22571;SDS011;11452;53.368;14.658;2022-07-23T05:34:03;6.20;;;2.60;;
22571;SDS011;11452;53.368;14.658;2022-07-23T05:39:10;5.40;;;2.20;;
22571;SDS011;11452;53.368;14.658;2022-07-23T05:44:15;5.13;;;2.50;;
22571;SDS011;11452;53.368;14.658;2022-07-23T05:49:21;6.37;;;2.53;;
22571;SDS011;11452;53.368;14.658;2022-07-23T05:54:28;4.93;;;2.40;;
22571;SDS011;11452;53.368;14.658;2022-07-23T05:59:34;4.23;;;2.53;;
22571;SDS011;11452;53.368;14.658;2022-07-23T06:04:39;2.40;;;2.00;;
22571;SDS011;11452;53.368;14.658;2022-07-23T06:09:47;3.60;;;2.40;;
22571;SDS011;11452;53.368;14.658;2022-07-23T06:14:53;4.33;;;2.53;;
22571;SDS011;11452;53.368;14.658;2022-07-23T06:19:58;5.17;;;2.57;;
22571;SDS011;11452;53.368;14.658;2022-07-23T06:25:04;4.50;;;2.67;;
22571;SDS011;11452;53.368;14.658;2022-07-23T06:30:12;5.30;;;2.80;;
22571;SDS011;11452;53.368;14.658;2022-07-23T06:35:21;2.90;;;2.60;;
22571;SDS011;11452;53.368;14.658;2022-07-23T06:40:26;5.13;;;2.80;;
22571;SDS011;11452;53.368;14.658;2022-07-23T06:45:32;3.17;;;2.63;;
22571;SDS011;11452;53.368;14.658;2022-07-23T06:50:37;5.17;;;2.70;;
22571;SDS011;11452;53.368;14.658;2022-07-23T06:55:43;4.80;;;2.60;;
22571;SDS011;11452;53.368;14.658;2022-07-23T07:00:48;3.93;;;3.00;;
22571;SDS011;11452;53.368;14.658;2022-07-23T07:05:55;3.30;;;3.00;;
22571;SDS011;11452;53.368;14.658;2022-07-23T07:11:01;3.93;;;3.47;;
22571;SDS011;11452;53.368;14.658;2022-07-23T07:16:07;4.30;;;3.20;;
22571;SDS011;11452;53.368;14.658;2022-07-23T07:21:13;4.93;;;2.80;;
22571;SDS011;11452;53.368;14.658;2022-07-23T07:26:18;4.17;;;2.73;;
22571;SDS011;11452;53.368;14.658;2022-07-23T07:31:24;3.50;;;2.50;;
22571;SDS011;11452;53.368;14.658;2022-07-23T07:36:29;2.60;;;2.40;;
22571;SDS011;11452;53.368;14.658;2022-07-23T07:41:36;3.30;;;2.50;;
22571;SDS011;11452;53.368;14.658;2022-07-23T07:46:41;5.00;;;3.30;;
22571;SDS011;11452;53.368;14.658;2022-07-23T07:51:47;3.93;;;2.87;;
22571;SDS011;11452;53.368;14.658;2022-07-23T07:56:52;5.03;;;2.70;;
22571;SDS011;11452;53.368;14.658;2022-07-23T08:01:58;2.87;;;2.37;;
22571;SDS011;11452;53.368;14.658;2022-07-23T08:07:03;2.60;;;2.40;;
22571;SDS011;11452;53.368;14.658;2022-07-23T08:12:09;4.67;;;2.50;;
22571;SDS011;11452;53.368;14.658;2022-07-23T08:17:14;3.30;;;2.77;;
22571;SDS011;11452;53.368;14.658;2022-07-23T08:22:20;3.77;;;2.47;;
22571;SDS011;11452;53.368;14.658;2022-07-23T08:27:26;3.73;;;2.50;;
22571;SDS011;11452;53.368;14.658;2022-07-23T08:32:31;4.57;;;2.70;;
22571;SDS011;11452;53.368;14.658;2022-07-23T08:37:40;3.27;;;2.37;;
22571;SDS011;11452;53.368;14.658;2022-07-23T08:42:48;3.20;;;2.67;;
22571;SDS011;11452;53.368;14.658;2022-07-23T08:47:56;4.17;;;2.73;;
22571;SDS011;11452;53.368;14.658;2022-07-23T08:53:05;3.73;;;2.73;;
22571;SDS011;11452;53.368;14.658;2022-07-23T08:58:12;3.60;;;2.80;;
22571;SDS011;11452;53.368;14.658;2022-07-23T09:03:19;3.87;;;3.00;;
22571;SDS011;11452;53.368;14.658;2022-07-23T09:08:35;4.67;;;3.00;;
22571;SDS011;11452;53.368;14.658;2022-07-23T09:13:52;2.87;;;2.63;;
22571;SDS011;11452;53.368;14.658;2022-07-23T09:19:01;3.87;;;2.87;;
22571;SDS011;11452;53.368;14.658;2022-07-23T09:24:10;2.87;;;2.63;;
22571;SDS011;11452;53.368;14.658;2022-07-23T09:29:22;2.80;;;2.60;;
22571;SDS011;11452;53.368;14.658;2022-07-23T09:34:30;2.70;;;2.50;;
22571;SDS011;11452;53.368;14.658;2022-07-23T09:39:38;3.87;;;2.30;;
22571;SDS011;11452;53.368;14.658;2022-07-23T09:44:50;2.63;;;2.43;;
22571;SDS011;11452;53.368;14.658;2022-07-23T09:50:08;7.20;;;2.30;;
22571;SDS011;11452;53.368;14.658;2022-07-23T09:55:17;3.73;;;2.53;;
22571;SDS011;11452;53.368;14.658;2022-07-23T10:00:23;3.10;;;2.37;;
22571;SDS011;11452;53.368;14.658;2022-07-23T10:05:29;2.93;;;2.67;;
22571;SDS011;11452;53.368;14.658;2022-07-23T10:10:40;3.07;;;2.67;;
22571;SDS011;11452;53.368;14.658;2022-07-23T10:15:53;5.50;;;3.27;;
22571;SDS011;11452;53.368;14.658;2022-07-23T10:21:00;2.77;;;2.53;;
22571;SDS011;11452;53.368;14.658;2022-07-23T10:26:10;3.13;;;2.83;;
22571;SDS011;11452;53.368;14.658;2022-07-23T10:31:28;2.90;;;2.70;;
22571;SDS011;11452;53.368;14.658;2022-07-23T10:41:53;3.13;;;2.27;;
22571;SDS011;11452;53.368;14.658;2022-07-23T10:47:27;2.70;;;2.50;;
22571;SDS011;11452;53.368;14.658;2022-07-23T10:58:25;3.60;;;2.13;;
22571;SDS011;11452;53.368;14.658;2022-07-23T11:03:36;2.53;;;2.20;;
22571;SDS011;11452;53.368;14.658;2022-07-23T11:08:42;2.40;;;2.20;;
22571;SDS011;11452;53.368;14.658;2022-07-23T11:13:48;2.53;;;2.10;;
22571;SDS011;11452;53.368;14.658;2022-07-23T11:18:54;2.27;;;2.00;;
22571;SDS011;11452;53.368;14.658;2022-07-23T11:34:40;2.37;;;2.10;;
22571;SDS011;11452;53.368;14.658;2022-07-23T11:39:47;2.57;;;1.80;;
22571;SDS011;11452;53.368;14.658;2022-07-23T11:44:52;5.80;;;2.40;;
22571;SDS011;11452;53.368;14.658;2022-07-23T11:49:59;2.07;;;1.80;;
22571;SDS011;11452;53.368;14.658;2022-07-23T11:55:07;6.43;;;1.83;;
22571;SDS011;11452;53.368;14.658;2022-07-23T12:00:16;2.33;;;1.80;;
22571;SDS011;11452;53.368;14.658;2022-07-23T12:05:29;3.53;;;1.73;;
22571;SDS011;11452;53.368;14.658;2022-07-23T12:10:41;1.83;;;1.73;;
22571;SDS011;11452;53.368;14.658;2022-07-23T12:15:44;1.93;;;1.50;;
22571;SDS011;11452;53.368;14.658;2022-07-23T12:20:52;1.60;;;1.50;;
22571;SDS011;11452;53.368;14.658;2022-07-23T12:26:02;2.20;;;2.00;;
22571;SDS011;11452;53.368;14.658;2022-07-23T12:31:09;1.90;;;1.70;;
22571;SDS011;11452;53.368;14.658;2022-07-23T12:36:18;1.60;;;1.50;;
22571;SDS011;11452;53.368;14.658;2022-07-23T12:41:24;2.70;;;1.50;;
22571;SDS011;11452;53.368;14.658;2022-07-23T12:46:33;2.70;;;1.70;;
22571;SDS011;11452;53.368;14.658;2022-07-23T12:51:39;1.90;;;1.70;;
22571;SDS011;11452;53.368;14.658;2022-07-23T12:56:46;2.23;;;1.53;;
22571;SDS011;11452;53.368;14.658;2022-07-23T13:01:55;1.80;;;1.70;;
22571;SDS011;11452;53.368;14.658;2022-07-23T13:07:05;3.57;;;1.60;;
22571;SDS011;11452;53.368;14.658;2022-07-23T13:12:11;5.30;;;1.90;;
22571;SDS011;11452;53.368;14.658;2022-07-23T13:17:16;2.00;;;1.70;;
22571;SDS011;11452;53.368;14.658;2022-07-23T13:22:23;3.10;;;1.53;;
22571;SDS011;11452;53.368;14.658;2022-07-23T13:27:28;1.93;;;1.60;;
22571;SDS011;11452;53.368;14.658;2022-07-23T13:32:36;1.60;;;1.50;;
22571;SDS011;11452;53.368;14.658;2022-07-23T13:37:42;2.17;;;1.57;;
22571;SDS011;11452;53.368;14.658;2022-07-23T13:42:48;3.73;;;1.70;;
22571;SDS011;11452;53.368;14.658;2022-07-23T13:47:53;3.10;;;1.70;;
22571;SDS011;11452;53.368;14.658;2022-07-23T13:53:05;3.73;;;1.50;;
22571;SDS011;11452;53.368;14.658;2022-07-23T13:58:13;1.60;;;1.47;;
22571;SDS011;11452;53.368;14.658;2022-07-23T14:03:22;5.57;;;1.63;;
22571;SDS011;11452;53.368;14.658;2022-07-23T14:08:30;2.07;;;1.60;;
22571;SDS011;11452;53.368;14.658;2022-07-23T14:13:35;1.57;;;1.20;;
22571;SDS011;11452;53.368;14.658;2022-07-23T14:18:41;2.40;;;1.53;;
22571;SDS011;11452;53.368;14.658;2022-07-23T14:23:46;1.70;;;1.60;;
22571;SDS011;11452;53.368;14.658;2022-07-23T14:28:52;1.50;;;1.40;;
22571;SDS011;11452;53.368;14.658;2022-07-23T14:33:58;2.57;;;1.53;;
22571;SDS011;11452;53.368;14.658;2022-07-23T14:39:05;1.40;;;1.30;;
22571;SDS011;11452;53.368;14.658;2022-07-23T14:44:13;1.60;;;1.50;;
22571;SDS011;11452;53.368;14.658;2022-07-23T14:49:19;1.80;;;1.10;;
22571;SDS011;11452;53.368;14.658;2022-07-23T14:54:24;1.53;;;1.43;;
22571;SDS011;11452;53.368;14.658;2022-07-23T14:59:31;1.27;;;1.10;;
22571;SDS011;11452;53.368;14.658;2022-07-23T15:04:37;1.40;;;0.90;;
22571;SDS011;11452;53.368;14.658;2022-07-23T15:09:42;1.17;;;1.07;;
22571;SDS011;11452;53.368;14.658;2022-07-23T15:14:48;2.17;;;1.27;;
22571;SDS011;11452;53.368;14.658;2022-07-23T15:19:54;1.00;;;0.90;;
22571;SDS011;11452;53.368;14.658;2022-07-23T15:25:00;1.53;;;0.90;;
22571;SDS011;11452;53.368;14.658;2022-07-23T15:30:06;1.13;;;1.03;;
22571;SDS011;11452;53.368;14.658;2022-07-23T15:35:12;3.10;;;1.30;;
22571;SDS011;11452;53.368;14.658;2022-07-23T15:40:18;1.97;;;1.23;;
22571;SDS011;11452;53.368;14.658;2022-07-23T15:45:24;1.67;;;1.20;;
22571;SDS011;11452;53.368;14.658;2022-07-23T15:50:29;1.00;;;1.00;;
22571;SDS011;11452;53.368;14.658;2022-07-23T15:55:35;2.10;;;1.10;;
22571;SDS011;11452;53.368;14.658;2022-07-23T16:00:41;1.50;;;1.40;;
22571;SDS011;11452;53.368;14.658;2022-07-23T16:05:49;1.93;;;1.43;;
22571;SDS011;11452;53.368;14.658;2022-07-23T16:10:55;3.40;;;1.17;;
22571;SDS011;11452;53.368;14.658;2022-07-23T16:16:03;4.00;;;1.10;;
22571;SDS011;11452;53.368;14.658;2022-07-23T16:21:10;1.40;;;1.00;;
22571;SDS011;11452;53.368;14.658;2022-07-23T16:26:18;1.27;;;1.10;;
22571;SDS011;11452;53.368;14.658;2022-07-23T16:31:24;2.47;;;1.20;;
22571;SDS011;11452;53.368;14.658;2022-07-23T16:36:30;1.00;;;0.90;;
22571;SDS011;11452;53.368;14.658;2022-07-23T16:41:37;1.10;;;1.00;;
22571;SDS011;11452;53.368;14.658;2022-07-23T16:46:43;1.97;;;1.00;;
22571;SDS011;11452;53.368;14.658;2022-07-23T16:51:48;2.37;;;1.20;;
22571;SDS011;11452;53.368;14.658;2022-07-23T16:56:54;1.77;;;1.37;;
22571;SDS011;11452;53.368;14.658;2022-07-23T17:01:59;1.40;;;1.30;;
22571;SDS011;11452;53.368;14.658;2022-07-23T17:07:05;8.93;;;1.40;;
22571;SDS011;11452;53.368;14.658;2022-07-23T17:12:11;1.13;;;1.03;;
22571;SDS011;11452;53.368;14.658;2022-07-23T17:17:17;1.43;;;0.90;;
22571;SDS011;11452;53.368;14.658;2022-07-23T17:22:23;2.23;;;1.30;;
22571;SDS011;11452;53.368;14.658;2022-07-23T17:27:28;1.53;;;1.10;;
22571;SDS011;11452;53.368;14.658;2022-07-23T17:32:34;1.47;;;1.30;;
22571;SDS011;11452;53.368;14.658;2022-07-23T17:37:39;1.93;;;1.00;;
22571;SDS011;11452;53.368;14.658;2022-07-23T17:42:46;1.27;;;1.10;;
22571;SDS011;11452;53.368;14.658;2022-07-23T17:47:52;1.30;;;1.20;;
22571;SDS011;11452;53.368;14.658;2022-07-23T17:52:58;1.50;;;1.40;;
22571;SDS011;11452;53.368;14.658;2022-07-23T17:58:03;0.93;;;0.93;;
22571;SDS011;11452;53.368;14.658;2022-07-23T18:03:09;1.50;;;1.10;;
22571;SDS011;11452;53.368;14.658;2022-07-23T18:08:15;0.87;;;0.87;;
22571;SDS011;11452;53.368;14.658;2022-07-23T18:13:21;0.83;;;0.70;;
22571;SDS011;11452;53.368;14.658;2022-07-23T18:18:27;2.87;;;1.20;;
22571;SDS011;11452;53.368;14.658;2022-07-23T18:23:32;0.90;;;0.90;;
22571;SDS011;11452;53.368;14.658;2022-07-23T18:28:38;2.40;;;0.70;;
22571;SDS011;11452;53.368;14.658;2022-07-23T18:33:44;1.20;;;1.10;;
22571;SDS011;11452;53.368;14.658;2022-07-23T18:38:49;0.90;;;0.77;;
22571;SDS011;11452;53.368;14.658;2022-07-23T18:43:56;1.20;;;0.70;;
22571;SDS011;11452;53.368;14.658;2022-07-23T18:49:02;1.70;;;0.90;;
22571;SDS011;11452;53.368;14.658;2022-07-23T18:54:08;2.53;;;1.00;;
22571;SDS011;11452;53.368;14.658;2022-07-23T18:59:15;2.33;;;0.80;;
22571;SDS011;11452;53.368;14.658;2022-07-23T19:04:23;1.63;;;1.10;;
22571;SDS011;11452;53.368;14.658;2022-07-23T19:09:30;1.30;;;1.20;;
22571;SDS011;11452;53.368;14.658;2022-07-23T19:14:39;1.30;;;0.90;;
22571;SDS011;11452;53.368;14.658;2022-07-23T19:19:44;1.10;;;1.00;;
22571;SDS011;11452;53.368;14.658;2022-07-23T19:24:50;1.20;;;0.93;;
22571;SDS011;11452;53.368;14.658;2022-07-23T19:29:55;2.73;;;1.00;;
22571;SDS011;11452;53.368;14.658;2022-07-23T19:35:01;1.27;;;1.13;;
22571;SDS011;11452;53.368;14.658;2022-07-23T19:40:07;1.33;;;1.13;;
22571;SDS011;11452;53.368;14.658;2022-07-23T19:45:15;2.47;;;1.30;;
22571;SDS011;11452;53.368;14.658;2022-07-23T19:50:21;1.63;;;1.30;;
22571;SDS011;11452;53.368;14.658;2022-07-23T19:55:28;1.83;;;1.40;;
22571;SDS011;11452;53.368;14.658;2022-07-23T20:00:34;2.20;;;1.40;;
22571;SDS011;11452;53.368;14.658;2022-07-23T20:05:41;1.60;;;1.40;;
22571;SDS011;11452;53.368;14.658;2022-07-23T20:10:48;1.87;;;1.20;;
22571;SDS011;11452;53.368;14.658;2022-07-23T20:15:53;2.37;;;1.53;;
22571;SDS011;11452;53.368;14.658;2022-07-23T20:20:59;1.40;;;1.30;;
22571;SDS011;11452;53.368;14.658;2022-07-23T20:26:04;2.00;;;1.33;;
22571;SDS011;11452;53.368;14.658;2022-07-23T20:31:10;1.90;;;1.70;;
22571;SDS011;11452;53.368;14.658;2022-07-23T20:36:16;1.70;;;1.30;;
22571;SDS011;11452;53.368;14.658;2022-07-23T20:41:21;2.30;;;1.83;;
22571;SDS011;11452;53.368;14.658;2022-07-23T20:46:27;4.43;;;1.67;;
22571;SDS011;11452;53.368;14.658;2022-07-23T20:51:33;3.67;;;1.83;;
22571;SDS011;11452;53.368;14.658;2022-07-23T20:56:39;2.10;;;1.50;;
22571;SDS011;11452;53.368;14.658;2022-07-23T21:01:45;1.47;;;1.37;;
22571;SDS011;11452;53.368;14.658;2022-07-23T21:06:51;2.97;;;1.30;;
22571;SDS011;11452;53.368;14.658;2022-07-23T21:11:57;2.27;;;1.50;;
22571;SDS011;11452;53.368;14.658;2022-07-23T21:17:03;2.10;;;1.70;;
22571;SDS011;11452;53.368;14.658;2022-07-23T21:22:08;1.50;;;1.40;;
22571;SDS011;11452;53.368;14.658;2022-07-23T21:27:14;3.73;;;1.87;;
22571;SDS011;11452;53.368;14.658;2022-07-23T21:32:19;2.67;;;1.70;;
22571;SDS011;11452;53.368;14.658;2022-07-23T21:37:25;2.47;;;1.30;;
22571;SDS011;11452;53.368;14.658;2022-07-23T21:42:30;2.07;;;1.70;;
22571;SDS011;11452;53.368;14.658;2022-07-23T21:47:36;2.83;;;1.60;;
22571;SDS011;11452;53.368;14.658;2022-07-23T21:52:43;1.97;;;1.80;;
22571;SDS011;11452;53.368;14.658;2022-07-23T21:57:48;3.37;;;1.90;;
22571;SDS011;11452;53.368;14.658;2022-07-23T22:02:54;1.77;;;1.40;;
22571;SDS011;11452;53.368;14.658;2022-07-23T22:08:00;2.17;;;1.63;;
22571;SDS011;11452;53.368;14.658;2022-07-23T22:13:07;1.60;;;1.50;;
22571;SDS011;11452;53.368;14.658;2022-07-23T22:18:12;2.03;;;1.40;;
22571;SDS011;11452;53.368;14.658;2022-07-23T22:23:18;2.23;;;1.30;;
22571;SDS011;11452;53.368;14.658;2022-07-23T22:28:24;3.77;;;1.47;;
22571;SDS011;11452;53.368;14.658;2022-07-23T22:33:29;2.20;;;1.47;;
22571;SDS011;11452;53.368;14.658;2022-07-23T22:38:35;2.90;;;1.80;;
22571;SDS011;11452;53.368;14.658;2022-07-23T22:43:40;3.53;;;1.77;;
22571;SDS011;11452;53.368;14.658;2022-07-23T22:48:47;2.97;;;1.73;;
22571;SDS011;11452;53.368;14.658;2022-07-23T22:53:52;3.37;;;1.73;;
22571;SDS011;11452;53.368;14.658;2022-07-23T22:58:59;3.30;;;1.70;;
22571;SDS011;11452;53.368;14.658;2022-07-23T23:04:06;2.20;;;1.70;;
22571;SDS011;11452;53.368;14.658;2022-07-23T23:09:11;4.90;;;2.23;;
22571;SDS011;11452;53.368;14.658;2022-07-23T23:14:17;3.13;;;1.77;;
22571;SDS011;11452;53.368;14.658;2022-07-23T23:19:22;4.03;;;1.90;;
22571;SDS011;11452;53.368;14.658;2022-07-23T23:24:28;2.93;;;1.80;;
22571;SDS011;11452;53.368;14.658;2022-07-23T23:29:33;2.60;;;1.77;;
22571;SDS011;11452;53.368;14.658;2022-07-23T23:34:39;3.43;;;1.57;;
22571;SDS011;11452;53.368;14.658;2022-07-23T23:39:44;2.37;;;1.80;;
22571;SDS011;11452;53.368;14.658;2022-07-23T23:44:50;1.83;;;1.53;;
22571;SDS011;11452;53.368;14.658;2022-07-23T23:49:56;2.63;;;1.57;;
22571;SDS011;11452;53.368;14.658;2022-07-23T23:55:01;2.17;;;1.63;;
